sensor_id;sensor_type;location;lat;lon;timestamp;temperature;humidity
28075;DHT22;15385;51.088;6.572;2022-09-27T00:01:48;12.70;99.90
28075;DHT22;15385;51.088;6.572;2022-09-27T00:04:19;12.70;99.90
28075;DHT22;15385;51.088;6.572;2022-09-27T00:06:49;12.70;99.90
28075;DHT22;15385;51.088;6.572;2022-09-27T00:09:20;12.70;99.90
28075;DHT22;15385;51.088;6.572;2022-09-27T00:11:50;12.70;99.90
28075;DHT22;15385;51.088;6.572;2022-09-27T00:14:21;12.70;99.90
28075;DHT22;15385;51.088;6.572;2022-09-27T00:16:51;12.70;99.90
28075;DHT22;15385;51.088;6.572;2022-09-27T00:19:22;12.60;99.90
28075;DHT22;15385;51.088;6.572;2022-09-27T00:21:53;12.60;99.90
28075;DHT22;15385;51.088;6.572;2022-09-27T00:24:23;12.50;99.90
28075;DHT22;15385;51.088;6.572;2022-09-27T00:26:54;12.60;99.90
28075;DHT22;15385;51.088;6.572;2022-09-27T00:29:24;12.50;99.90
28075;DHT22;15385;51.088;6.572;2022-09-27T00:31:55;12.50;99.90
28075;DHT22;15385;51.088;6.572;2022-09-27T00:34:26;12.60;99.90
28075;DHT22;15385;51.088;6.572;2022-09-27T00:36:56;12.50;99.90
28075;DHT22;15385;51.088;6.572;2022-09-27T00:39:27;12.40;99.90
28075;DHT22;15385;51.088;6.572;2022-09-27T00:41:57;12.40;99.90
28075;DHT22;15385;51.088;6.572;2022-09-27T00:50:08;12.40;99.90
28075;DHT22;15385;51.088;6.572;2022-09-27T00:52:42;12.30;99.90
28075;DHT22;15385;51.088;6.572;2022-09-27T00:55:17;12.30;99.90
28075;DHT22;15385;51.088;6.572;2022-09-27T00:57:48;12.30;99.90
28075;DHT22;15385;51.088;6.572;2022-09-27T01:00:19;12.30;99.90
28075;DHT22;15385;51.088;6.572;2022-09-27T01:02:51;12.30;99.90
28075;DHT22;15385;51.088;6.572;2022-09-27T01:05:25;12.30;99.90
28075;DHT22;15385;51.088;6.572;2022-09-27T01:07:56;12.30;99.90
28075;DHT22;15385;51.088;6.572;2022-09-27T01:10:31;12.30;99.90
28075;DHT22;15385;51.088;6.572;2022-09-27T01:13:12;12.10;99.90
28075;DHT22;15385;51.088;6.572;2022-09-27T01:15:51;12.10;99.90
28075;DHT22;15385;51.088;6.572;2022-09-27T01:18:29;12.20;99.90
28075;DHT22;15385;51.088;6.572;2022-09-27T01:21:22;12.30;99.90
28075;DHT22;15385;51.088;6.572;2022-09-27T01:32:07;12.10;99.90
28075;DHT22;15385;51.088;6.572;2022-09-27T01:34:45;12.10;99.90
28075;DHT22;15385;51.088;6.572;2022-09-27T01:43:05;12.10;99.90
28075;DHT22;15385;51.088;6.572;2022-09-27T01:45:40;12.10;99.90
28075;DHT22;15385;51.088;6.572;2022-09-27T01:48:14;12.10;99.90
28075;DHT22;15385;51.088;6.572;2022-09-27T01:50:48;12.10;99.90
28075;DHT22;15385;51.088;6.572;2022-09-27T01:53:22;12.10;99.90
28075;DHT22;15385;51.088;6.572;2022-09-27T01:55:53;12.20;99.90
28075;DHT22;15385;51.088;6.572;2022-09-27T01:58:28;12.20;99.90
28075;DHT22;15385;51.088;6.572;2022-09-27T02:01:00;12.20;99.90
28075;DHT22;15385;51.088;6.572;2022-09-27T02:03:35;12.10;99.90
28075;DHT22;15385;51.088;6.572;2022-09-27T02:06:10;12.00;99.90
28075;DHT22;15385;51.088;6.572;2022-09-27T02:08:44;11.90;99.90
28075;DHT22;15385;51.088;6.572;2022-09-27T02:11:15;12.00;99.90
28075;DHT22;15385;51.088;6.572;2022-09-27T02:25:09;12.10;99.90
28075;DHT22;15385;51.088;6.572;2022-09-27T02:30:14;12.10;99.90
28075;DHT22;15385;51.088;6.572;2022-09-27T02:32:45;12.00;99.90
28075;DHT22;15385;51.088;6.572;2022-09-27T02:35:18;12.10;99.90
28075;DHT22;15385;51.088;6.572;2022-09-27T02:37:49;12.00;99.90
28075;DHT22;15385;51.088;6.572;2022-09-27T02:40:21;11.90;99.90
28075;DHT22;15385;51.088;6.572;2022-09-27T02:42:51;11.90;99.90
28075;DHT22;15385;51.088;6.572;2022-09-27T02:45:22;11.80;99.90
28075;DHT22;15385;51.088;6.572;2022-09-27T02:47:58;11.80;99.90
28075;DHT22;15385;51.088;6.572;2022-09-27T02:55:54;11.80;99.90
28075;DHT22;15385;51.088;6.572;2022-09-27T02:58:53;11.80;99.90
28075;DHT22;15385;51.088;6.572;2022-09-27T03:06:51;11.70;99.90
28075;DHT22;15385;51.088;6.572;2022-09-27T03:09:27;11.60;99.90
28075;DHT22;15385;51.088;6.572;2022-09-27T03:11:58;11.60;99.90
28075;DHT22;15385;51.088;6.572;2022-09-27T03:14:28;11.60;99.90
28075;DHT22;15385;51.088;6.572;2022-09-27T03:16:59;11.60;99.90
28075;DHT22;15385;51.088;6.572;2022-09-27T03:19:29;11.50;99.90
28075;DHT22;15385;51.088;6.572;2022-09-27T03:22:00;11.50;99.90
28075;DHT22;15385;51.088;6.572;2022-09-27T03:24:30;11.50;99.90
28075;DHT22;15385;51.088;6.572;2022-09-27T03:27:01;11.60;99.90
28075;DHT22;15385;51.088;6.572;2022-09-27T03:29:33;11.60;99.90
28075;DHT22;15385;51.088;6.572;2022-09-27T03:32:03;11.60;99.90
28075;DHT22;15385;51.088;6.572;2022-09-27T03:34:34;11.40;99.90
28075;DHT22;15385;51.088;6.572;2022-09-27T03:37:04;11.40;99.90
28075;DHT22;15385;51.088;6.572;2022-09-27T03:39:35;11.40;99.90
28075;DHT22;15385;51.088;6.572;2022-09-27T03:42:05;11.30;99.90
28075;DHT22;15385;51.088;6.572;2022-09-27T03:44:36;11.20;99.90
28075;DHT22;15385;51.088;6.572;2022-09-27T03:47:06;11.20;99.90
28075;DHT22;15385;51.088;6.572;2022-09-27T03:49:37;11.20;99.90
28075;DHT22;15385;51.088;6.572;2022-09-27T03:52:07;11.20;99.90
28075;DHT22;15385;51.088;6.572;2022-09-27T03:54:38;11.30;99.90
28075;DHT22;15385;51.088;6.572;2022-09-27T03:57:09;11.30;99.90
28075;DHT22;15385;51.088;6.572;2022-09-27T03:59:39;11.30;99.90
28075;DHT22;15385;51.088;6.572;2022-09-27T04:02:10;11.30;99.90
28075;DHT22;15385;51.088;6.572;2022-09-27T04:04:40;11.30;99.90
28075;DHT22;15385;51.088;6.572;2022-09-27T04:07:11;11.20;99.90
28075;DHT22;15385;51.088;6.572;2022-09-27T04:09:41;11.20;99.90
28075;DHT22;15385;51.088;6.572;2022-09-27T04:12:13;11.20;99.90
28075;DHT22;15385;51.088;6.572;2022-09-27T04:14:44;11.10;99.90
28075;DHT22;15385;51.088;6.572;2022-09-27T04:17:14;11.10;99.90
28075;DHT22;15385;51.088;6.572;2022-09-27T04:19:45;11.10;99.90
28075;DHT22;15385;51.088;6.572;2022-09-27T04:22:15;11.10;99.90
28075;DHT22;15385;51.088;6.572;2022-09-27T04:24:46;11.00;99.90
28075;DHT22;15385;51.088;6.572;2022-09-27T04:27:17;11.10;99.90
28075;DHT22;15385;51.088;6.572;2022-09-27T04:29:47;11.20;99.90
28075;DHT22;15385;51.088;6.572;2022-09-27T04:32:18;11.20;99.90
28075;DHT22;15385;51.088;6.572;2022-09-27T04:34:48;11.10;99.90
28075;DHT22;15385;51.088;6.572;2022-09-27T04:37:37;11.10;99.90
28075;DHT22;15385;51.088;6.572;2022-09-27T04:40:08;11.00;99.90
28075;DHT22;15385;51.088;6.572;2022-09-27T04:42:39;11.10;99.90
28075;DHT22;15385;51.088;6.572;2022-09-27T04:45:09;11.10;99.90
28075;DHT22;15385;51.088;6.572;2022-09-27T04:47:44;11.10;99.90
28075;DHT22;15385;51.088;6.572;2022-09-27T04:50:15;11.00;99.90
28075;DHT22;15385;51.088;6.572;2022-09-27T04:52:50;11.00;99.90
28075;DHT22;15385;51.088;6.572;2022-09-27T04:55:21;10.90;99.90
28075;DHT22;15385;51.088;6.572;2022-09-27T04:57:52;10.90;99.90
28075;DHT22;15385;51.088;6.572;2022-09-27T05:00:22;11.00;99.90
28075;DHT22;15385;51.088;6.572;2022-09-27T05:02:53;11.00;99.90
28075;DHT22;15385;51.088;6.572;2022-09-27T05:05:23;10.90;99.90
28075;DHT22;15385;51.088;6.572;2022-09-27T05:07:54;10.90;99.90
28075;DHT22;15385;51.088;6.572;2022-09-27T05:10:24;10.90;99.90
28075;DHT22;15385;51.088;6.572;2022-09-27T05:12:55;10.90;99.90
28075;DHT22;15385;51.088;6.572;2022-09-27T05:15:25;10.90;99.90
28075;DHT22;15385;51.088;6.572;2022-09-27T05:17:56;10.90;99.90
28075;DHT22;15385;51.088;6.572;2022-09-27T05:20:28;10.90;99.90
28075;DHT22;15385;51.088;6.572;2022-09-27T05:22:58;10.80;99.90
28075;DHT22;15385;51.088;6.572;2022-09-27T05:25:29;10.80;99.90
28075;DHT22;15385;51.088;6.572;2022-09-27T05:28:00;10.80;99.90
28075;DHT22;15385;51.088;6.572;2022-09-27T05:30:31;10.80;99.90
28075;DHT22;15385;51.088;6.572;2022-09-27T05:33:02;10.80;99.90
28075;DHT22;15385;51.088;6.572;2022-09-27T05:35:33;10.80;99.90
28075;DHT22;15385;51.088;6.572;2022-09-27T05:38:05;10.90;99.90
28075;DHT22;15385;51.088;6.572;2022-09-27T05:40:35;10.70;99.90
28075;DHT22;15385;51.088;6.572;2022-09-27T05:43:06;10.80;99.90
28075;DHT22;15385;51.088;6.572;2022-09-27T05:45:36;10.80;99.90
28075;DHT22;15385;51.088;6.572;2022-09-27T05:48:07;10.80;99.90
28075;DHT22;15385;51.088;6.572;2022-09-27T05:50:38;10.80;99.90
28075;DHT22;15385;51.088;6.572;2022-09-27T05:53:08;10.80;99.90
28075;DHT22;15385;51.088;6.572;2022-09-27T05:55:39;10.80;99.90
28075;DHT22;15385;51.088;6.572;2022-09-27T05:58:10;10.90;99.90
28075;DHT22;15385;51.088;6.572;2022-09-27T06:00:42;10.90;99.90
28075;DHT22;15385;51.088;6.572;2022-09-27T06:03:12;10.90;99.90
28075;DHT22;15385;51.088;6.572;2022-09-27T06:05:43;11.00;99.90
28075;DHT22;15385;51.088;6.572;2022-09-27T06:08:14;10.90;99.90
28075;DHT22;15385;51.088;6.572;2022-09-27T06:10:44;10.90;99.90
28075;DHT22;15385;51.088;6.572;2022-09-27T06:13:15;10.90;99.90
28075;DHT22;15385;51.088;6.572;2022-09-27T06:15:47;11.00;99.90
28075;DHT22;15385;51.088;6.572;2022-09-27T06:18:20;11.00;99.90
28075;DHT22;15385;51.088;6.572;2022-09-27T06:20:50;11.00;99.90
28075;DHT22;15385;51.088;6.572;2022-09-27T06:23:21;11.00;99.90
28075;DHT22;15385;51.088;6.572;2022-09-27T06:25:54;11.00;99.90
28075;DHT22;15385;51.088;6.572;2022-09-27T06:28:25;11.00;99.90
28075;DHT22;15385;51.088;6.572;2022-09-27T06:30:56;11.00;99.90
28075;DHT22;15385;51.088;6.572;2022-09-27T06:33:29;11.10;99.90
28075;DHT22;15385;51.088;6.572;2022-09-27T06:36:01;11.10;99.90
28075;DHT22;15385;51.088;6.572;2022-09-27T06:38:32;11.10;99.90
28075;DHT22;15385;51.088;6.572;2022-09-27T06:41:03;11.00;99.90
28075;DHT22;15385;51.088;6.572;2022-09-27T06:43:35;11.10;99.90
28075;DHT22;15385;51.088;6.572;2022-09-27T06:46:06;11.10;99.90
28075;DHT22;15385;51.088;6.572;2022-09-27T06:48:36;11.00;99.90
28075;DHT22;15385;51.088;6.572;2022-09-27T06:51:07;11.00;99.90
28075;DHT22;15385;51.088;6.572;2022-09-27T06:53:38;11.00;99.90
28075;DHT22;15385;51.088;6.572;2022-09-27T06:56:08;10.90;99.90
28075;DHT22;15385;51.088;6.572;2022-09-27T06:58:39;11.00;99.90
28075;DHT22;15385;51.088;6.572;2022-09-27T07:01:28;11.00;99.90
28075;DHT22;15385;51.088;6.572;2022-09-27T07:03:59;11.00;99.90
28075;DHT22;15385;51.088;6.572;2022-09-27T07:06:29;11.00;99.90
28075;DHT22;15385;51.088;6.572;2022-09-27T07:09:00;11.00;99.90
28075;DHT22;15385;51.088;6.572;2022-09-27T07:11:33;10.90;99.90
28075;DHT22;15385;51.088;6.572;2022-09-27T07:14:04;11.00;99.90
28075;DHT22;15385;51.088;6.572;2022-09-27T07:16:35;11.10;99.90
28075;DHT22;15385;51.088;6.572;2022-09-27T07:19:06;11.00;99.90
28075;DHT22;15385;51.088;6.572;2022-09-27T07:21:37;10.90;99.90
28075;DHT22;15385;51.088;6.572;2022-09-27T07:24:07;11.00;99.90
28075;DHT22;15385;51.088;6.572;2022-09-27T07:26:38;11.00;99.90
28075;DHT22;15385;51.088;6.572;2022-09-27T07:29:08;10.90;99.90
28075;DHT22;15385;51.088;6.572;2022-09-27T07:31:39;11.00;99.90
28075;DHT22;15385;51.088;6.572;2022-09-27T07:34:09;10.90;99.90
28075;DHT22;15385;51.088;6.572;2022-09-27T07:36:41;10.90;99.90
28075;DHT22;15385;51.088;6.572;2022-09-27T07:39:12;11.00;99.90
28075;DHT22;15385;51.088;6.572;2022-09-27T07:41:42;11.00;99.90
28075;DHT22;15385;51.088;6.572;2022-09-27T07:44:13;11.10;99.90
28075;DHT22;15385;51.088;6.572;2022-09-27T07:46:45;11.20;99.90
28075;DHT22;15385;51.088;6.572;2022-09-27T07:49:16;11.20;99.90
28075;DHT22;15385;51.088;6.572;2022-09-27T07:51:46;11.30;99.90
28075;DHT22;15385;51.088;6.572;2022-09-27T07:54:17;11.40;99.90
28075;DHT22;15385;51.088;6.572;2022-09-27T07:56:47;11.50;99.90
28075;DHT22;15385;51.088;6.572;2022-09-27T07:59:18;11.60;99.90
28075;DHT22;15385;51.088;6.572;2022-09-27T08:01:49;11.80;99.90
28075;DHT22;15385;51.088;6.572;2022-09-27T08:04:20;11.80;99.90
28075;DHT22;15385;51.088;6.572;2022-09-27T08:06:50;11.80;99.90
28075;DHT22;15385;51.088;6.572;2022-09-27T08:09:21;11.80;99.90
28075;DHT22;15385;51.088;6.572;2022-09-27T08:11:51;11.80;99.90
28075;DHT22;15385;51.088;6.572;2022-09-27T08:14:26;11.70;99.90
28075;DHT22;15385;51.088;6.572;2022-09-27T08:16:56;11.70;99.90
28075;DHT22;15385;51.088;6.572;2022-09-27T08:19:27;11.80;99.90
28075;DHT22;15385;51.088;6.572;2022-09-27T08:21:58;11.80;99.90
28075;DHT22;15385;51.088;6.572;2022-09-27T08:24:29;11.80;99.90
28075;DHT22;15385;51.088;6.572;2022-09-27T08:27:00;11.80;99.90
28075;DHT22;15385;51.088;6.572;2022-09-27T08:29:31;12.00;99.90
28075;DHT22;15385;51.088;6.572;2022-09-27T08:32:02;12.10;99.90
28075;DHT22;15385;51.088;6.572;2022-09-27T08:34:32;12.10;99.90
28075;DHT22;15385;51.088;6.572;2022-09-27T08:37:03;12.20;99.90
28075;DHT22;15385;51.088;6.572;2022-09-27T08:39:33;12.20;99.90
28075;DHT22;15385;51.088;6.572;2022-09-27T08:52:26;12.20;99.90
28075;DHT22;15385;51.088;6.572;2022-09-27T08:54:59;12.30;99.90
28075;DHT22;15385;51.088;6.572;2022-09-27T08:57:31;12.40;99.90
28075;DHT22;15385;51.088;6.572;2022-09-27T09:00:06;12.40;99.90
28075;DHT22;15385;51.088;6.572;2022-09-27T09:02:37;12.40;99.90
28075;DHT22;15385;51.088;6.572;2022-09-27T09:05:13;12.50;99.90
28075;DHT22;15385;51.088;6.572;2022-09-27T09:07:52;12.40;99.90
28075;DHT22;15385;51.088;6.572;2022-09-27T09:14:00;12.50;99.90
28075;DHT22;15385;51.088;6.572;2022-09-27T09:21:53;12.80;99.90
28075;DHT22;15385;51.088;6.572;2022-09-27T09:24:38;12.90;99.90
28075;DHT22;15385;51.088;6.572;2022-09-27T09:35:28;13.10;99.90
28075;DHT22;15385;51.088;6.572;2022-09-27T09:37:52;13.20;99.90
28075;DHT22;15385;51.088;6.572;2022-09-27T09:40:26;13.20;99.90
28075;DHT22;15385;51.088;6.572;2022-09-27T09:45:44;13.20;99.90
28075;DHT22;15385;51.088;6.572;2022-09-27T09:48:23;13.40;99.90
28075;DHT22;15385;51.088;6.572;2022-09-27T09:50:58;13.60;99.90
28075;DHT22;15385;51.088;6.572;2022-09-27T09:56:24;13.30;99.90
28075;DHT22;15385;51.088;6.572;2022-09-27T09:58:56;13.20;99.90
28075;DHT22;15385;51.088;6.572;2022-09-27T10:04:05;13.00;99.90
28075;DHT22;15385;51.088;6.572;2022-09-27T10:06:35;13.00;99.90
28075;DHT22;15385;51.088;6.572;2022-09-27T10:09:07;13.00;99.90
28075;DHT22;15385;51.088;6.572;2022-09-27T10:11:39;12.90;99.90
28075;DHT22;15385;51.088;6.572;2022-09-27T10:14:10;12.90;99.90
28075;DHT22;15385;51.088;6.572;2022-09-27T10:16:43;12.90;99.90
28075;DHT22;15385;51.088;6.572;2022-09-27T10:19:17;12.90;99.90
28075;DHT22;15385;51.088;6.572;2022-09-27T10:21:49;12.90;99.90
28075;DHT22;15385;51.088;6.572;2022-09-27T10:24:20;12.90;99.90
28075;DHT22;15385;51.088;6.572;2022-09-27T10:26:52;12.90;99.90
28075;DHT22;15385;51.088;6.572;2022-09-27T10:32:00;12.70;99.90
28075;DHT22;15385;51.088;6.572;2022-09-27T10:34:40;12.70;99.90
28075;DHT22;15385;51.088;6.572;2022-09-27T10:39:42;12.70;99.90
28075;DHT22;15385;51.088;6.572;2022-09-27T10:42:33;12.70;99.90
28075;DHT22;15385;51.088;6.572;2022-09-27T10:45:19;12.80;99.90
28075;DHT22;15385;51.088;6.572;2022-09-27T10:47:51;12.90;99.90
28075;DHT22;15385;51.088;6.572;2022-09-27T10:50:26;12.80;99.90
28075;DHT22;15385;51.088;6.572;2022-09-27T10:55:33;12.90;99.90
28075;DHT22;15385;51.088;6.572;2022-09-27T10:58:04;12.80;99.90
28075;DHT22;15385;51.088;6.572;2022-09-27T11:00:35;12.80;99.90
28075;DHT22;15385;51.088;6.572;2022-09-27T11:03:11;12.90;99.90
28075;DHT22;15385;51.088;6.572;2022-09-27T11:05:43;13.00;99.90
28075;DHT22;15385;51.088;6.572;2022-09-27T11:13:36;13.10;99.90
28075;DHT22;15385;51.088;6.572;2022-09-27T11:45:51;14.20;99.90
28075;DHT22;15385;51.088;6.572;2022-09-27T12:04:45;13.80;99.90
28075;DHT22;15385;51.088;6.572;2022-09-27T12:10:10;14.20;99.90
28075;DHT22;15385;51.088;6.572;2022-09-27T12:12:43;14.20;99.90
28075;DHT22;15385;51.088;6.572;2022-09-27T12:15:17;14.00;99.90
28075;DHT22;15385;51.088;6.572;2022-09-27T12:17:49;13.50;99.90
28075;DHT22;15385;51.088;6.572;2022-09-27T12:20:27;13.10;99.90
28075;DHT22;15385;51.088;6.572;2022-09-27T12:23:10;13.20;99.90
28075;DHT22;15385;51.088;6.572;2022-09-27T12:25:44;13.20;99.90
28075;DHT22;15385;51.088;6.572;2022-09-27T12:31:20;13.20;99.90
28075;DHT22;15385;51.088;6.572;2022-09-27T12:34:13;13.20;99.90
28075;DHT22;15385;51.088;6.572;2022-09-27T12:36:52;13.10;99.90
28075;DHT22;15385;51.088;6.572;2022-09-27T12:42:10;13.00;99.90
28075;DHT22;15385;51.088;6.572;2022-09-27T12:44:42;13.00;99.90
28075;DHT22;15385;51.088;6.572;2022-09-27T12:50:48;13.20;99.90
28075;DHT22;15385;51.088;6.572;2022-09-27T12:52:57;13.40;99.90
28075;DHT22;15385;51.088;6.572;2022-09-27T13:04:03;13.80;99.90
28075;DHT22;15385;51.088;6.572;2022-09-27T13:06:43;13.60;99.90
28075;DHT22;15385;51.088;6.572;2022-09-27T13:14:31;13.20;99.90
28075;DHT22;15385;51.088;6.572;2022-09-27T13:17:03;13.20;99.90
28075;DHT22;15385;51.088;6.572;2022-09-27T13:22:47;13.40;99.90
28075;DHT22;15385;51.088;6.572;2022-09-27T13:24:58;13.50;99.90
28075;DHT22;15385;51.088;6.572;2022-09-27T13:35:31;13.60;99.90
28075;DHT22;15385;51.088;6.572;2022-09-27T13:38:02;13.70;99.90
28075;DHT22;15385;51.088;6.572;2022-09-27T13:40:37;13.70;99.90
28075;DHT22;15385;51.088;6.572;2022-09-27T13:48:21;13.60;99.90
28075;DHT22;15385;51.088;6.572;2022-09-27T13:50:57;13.60;99.90
28075;DHT22;15385;51.088;6.572;2022-09-27T13:53:32;13.80;99.90
28075;DHT22;15385;51.088;6.572;2022-09-27T13:56:04;13.70;99.90
28075;DHT22;15385;51.088;6.572;2022-09-27T14:01:14;13.70;99.90
28075;DHT22;15385;51.088;6.572;2022-09-27T14:03:54;13.60;99.90
28075;DHT22;15385;51.088;6.572;2022-09-27T14:06:26;13.60;99.90
28075;DHT22;15385;51.088;6.572;2022-09-27T14:08:59;13.50;99.90
28075;DHT22;15385;51.088;6.572;2022-09-27T14:11:33;13.40;99.90
28075;DHT22;15385;51.088;6.572;2022-09-27T14:14:06;13.50;99.90
28075;DHT22;15385;51.088;6.572;2022-09-27T14:16:39;13.40;99.90
28075;DHT22;15385;51.088;6.572;2022-09-27T14:19:22;13.50;99.90
28075;DHT22;15385;51.088;6.572;2022-09-27T14:21:55;13.70;99.90
28075;DHT22;15385;51.088;6.572;2022-09-27T14:27:09;14.00;99.90
28075;DHT22;15385;51.088;6.572;2022-09-27T14:29:42;14.10;99.90
28075;DHT22;15385;51.088;6.572;2022-09-27T14:32:15;14.00;99.90
28075;DHT22;15385;51.088;6.572;2022-09-27T14:35:01;14.10;99.90
28075;DHT22;15385;51.088;6.572;2022-09-27T14:37:31;14.10;99.90
28075;DHT22;15385;51.088;6.572;2022-09-27T14:40:03;14.00;99.90
28075;DHT22;15385;51.088;6.572;2022-09-27T14:42:37;13.70;99.90
28075;DHT22;15385;51.088;6.572;2022-09-27T14:47:45;13.70;99.90
28075;DHT22;15385;51.088;6.572;2022-09-27T14:52:49;13.70;99.90
28075;DHT22;15385;51.088;6.572;2022-09-27T14:55:27;13.70;99.90
28075;DHT22;15385;51.088;6.572;2022-09-27T14:58:00;13.70;99.90
28075;DHT22;15385;51.088;6.572;2022-09-27T15:00:32;13.70;99.90
28075;DHT22;15385;51.088;6.572;2022-09-27T15:03:06;13.70;99.90
28075;DHT22;15385;51.088;6.572;2022-09-27T15:05:40;13.70;99.90
28075;DHT22;15385;51.088;6.572;2022-09-27T15:08:11;13.60;99.90
28075;DHT22;15385;51.088;6.572;2022-09-27T15:10:42;13.50;99.90
28075;DHT22;15385;51.088;6.572;2022-09-27T15:13:13;13.30;99.90
28075;DHT22;15385;51.088;6.572;2022-09-27T15:15:44;13.10;99.90
28075;DHT22;15385;51.088;6.572;2022-09-27T15:21:11;12.90;99.90
28075;DHT22;15385;51.088;6.572;2022-09-27T15:23:43;13.00;99.90
28075;DHT22;15385;51.088;6.572;2022-09-27T15:26:32;13.10;99.90
28075;DHT22;15385;51.088;6.572;2022-09-27T15:29:16;13.10;99.90
28075;DHT22;15385;51.088;6.572;2022-09-27T15:34:47;13.00;99.90
28075;DHT22;15385;51.088;6.572;2022-09-27T15:37:31;12.90;99.90
28075;DHT22;15385;51.088;6.572;2022-09-27T15:45:31;12.80;99.90
28075;DHT22;15385;51.088;6.572;2022-09-27T15:48:15;13.00;99.90
28075;DHT22;15385;51.088;6.572;2022-09-27T15:50:46;13.10;99.90
28075;DHT22;15385;51.088;6.572;2022-09-27T15:53:39;13.00;99.90
28075;DHT22;15385;51.088;6.572;2022-09-27T15:56:09;12.90;99.90
28075;DHT22;15385;51.088;6.572;2022-09-27T15:58:42;13.00;99.90
28075;DHT22;15385;51.088;6.572;2022-09-27T16:01:16;13.10;99.90
28075;DHT22;15385;51.088;6.572;2022-09-27T16:03:47;13.10;99.90
28075;DHT22;15385;51.088;6.572;2022-09-27T16:06:18;13.10;99.90
28075;DHT22;15385;51.088;6.572;2022-09-27T16:08:49;13.10;99.90
28075;DHT22;15385;51.088;6.572;2022-09-27T16:11:20;13.00;99.90
28075;DHT22;15385;51.088;6.572;2022-09-27T16:13:50;13.10;99.90
28075;DHT22;15385;51.088;6.572;2022-09-27T16:16:24;13.00;99.90
28075;DHT22;15385;51.088;6.572;2022-09-27T16:18:54;13.00;99.90
28075;DHT22;15385;51.088;6.572;2022-09-27T16:21:25;13.00;99.90
28075;DHT22;15385;51.088;6.572;2022-09-27T16:23:56;13.00;99.90
28075;DHT22;15385;51.088;6.572;2022-09-27T16:26:26;13.00;99.90
28075;DHT22;15385;51.088;6.572;2022-09-27T16:28:57;13.00;99.90
28075;DHT22;15385;51.088;6.572;2022-09-27T16:31:28;13.00;99.90
28075;DHT22;15385;51.088;6.572;2022-09-27T16:33:58;12.80;99.90
28075;DHT22;15385;51.088;6.572;2022-09-27T16:36:29;12.70;99.90
28075;DHT22;15385;51.088;6.572;2022-09-27T16:39:00;12.70;99.90
28075;DHT22;15385;51.088;6.572;2022-09-27T16:41:34;12.70;99.90
28075;DHT22;15385;51.088;6.572;2022-09-27T16:44:05;12.70;99.90
28075;DHT22;15385;51.088;6.572;2022-09-27T16:46:40;12.80;99.90
28075;DHT22;15385;51.088;6.572;2022-09-27T16:49:10;12.80;99.90
28075;DHT22;15385;51.088;6.572;2022-09-27T16:52:00;12.90;99.90
28075;DHT22;15385;51.088;6.572;2022-09-27T16:54:30;13.00;99.90
28075;DHT22;15385;51.088;6.572;2022-09-27T16:57:01;12.90;99.90
28075;DHT22;15385;51.088;6.572;2022-09-27T16:59:32;12.80;99.90
28075;DHT22;15385;51.088;6.572;2022-09-27T17:02:02;12.80;99.90
28075;DHT22;15385;51.088;6.572;2022-09-27T17:04:34;12.80;99.90
28075;DHT22;15385;51.088;6.572;2022-09-27T17:07:05;12.70;99.90
28075;DHT22;15385;51.088;6.572;2022-09-27T17:09:35;12.60;99.90
28075;DHT22;15385;51.088;6.572;2022-09-27T17:12:06;12.60;99.90
28075;DHT22;15385;51.088;6.572;2022-09-27T17:14:37;12.60;99.90
28075;DHT22;15385;51.088;6.572;2022-09-27T17:17:07;12.50;99.90
28075;DHT22;15385;51.088;6.572;2022-09-27T17:19:38;12.60;99.90
28075;DHT22;15385;51.088;6.572;2022-09-27T17:22:08;12.60;99.90
28075;DHT22;15385;51.088;6.572;2022-09-27T17:24:38;12.50;99.90
28075;DHT22;15385;51.088;6.572;2022-09-27T17:27:09;12.40;99.90
28075;DHT22;15385;51.088;6.572;2022-09-27T17:29:39;12.40;99.90
28075;DHT22;15385;51.088;6.572;2022-09-27T17:32:10;12.40;99.90
28075;DHT22;15385;51.088;6.572;2022-09-27T17:34:42;12.30;99.90
28075;DHT22;15385;51.088;6.572;2022-09-27T17:37:13;12.40;99.90
28075;DHT22;15385;51.088;6.572;2022-09-27T17:39:43;12.40;99.90
28075;DHT22;15385;51.088;6.572;2022-09-27T17:42:14;12.40;99.90
28075;DHT22;15385;51.088;6.572;2022-09-27T17:44:44;12.30;99.90
28075;DHT22;15385;51.088;6.572;2022-09-27T17:47:15;12.30;99.90
28075;DHT22;15385;51.088;6.572;2022-09-27T17:50:04;12.30;99.90
28075;DHT22;15385;51.088;6.572;2022-09-27T17:52:55;12.30;99.90
28075;DHT22;15385;51.088;6.572;2022-09-27T17:55:25;12.40;99.90
28075;DHT22;15385;51.088;6.572;2022-09-27T17:57:56;12.40;99.90
28075;DHT22;15385;51.088;6.572;2022-09-27T18:00:27;12.40;99.90
28075;DHT22;15385;51.088;6.572;2022-09-27T18:02:58;12.40;99.90
28075;DHT22;15385;51.088;6.572;2022-09-27T18:05:29;12.40;99.90
28075;DHT22;15385;51.088;6.572;2022-09-27T18:08:00;12.50;99.90
28075;DHT22;15385;51.088;6.572;2022-09-27T18:10:30;12.30;99.90
28075;DHT22;15385;51.088;6.572;2022-09-27T18:13:01;12.30;99.90
28075;DHT22;15385;51.088;6.572;2022-09-27T18:15:32;12.30;99.90
28075;DHT22;15385;51.088;6.572;2022-09-27T18:18:06;12.20;99.90
28075;DHT22;15385;51.088;6.572;2022-09-27T18:20:36;12.10;99.90
28075;DHT22;15385;51.088;6.572;2022-09-27T18:23:07;12.10;99.90
28075;DHT22;15385;51.088;6.572;2022-09-27T18:25:37;12.10;99.90
28075;DHT22;15385;51.088;6.572;2022-09-27T18:28:08;12.20;99.90
28075;DHT22;15385;51.088;6.572;2022-09-27T18:30:39;12.30;99.90
28075;DHT22;15385;51.088;6.572;2022-09-27T18:33:09;12.30;99.90
28075;DHT22;15385;51.088;6.572;2022-09-27T18:35:39;12.40;99.90
28075;DHT22;15385;51.088;6.572;2022-09-27T18:38:10;12.30;99.90
28075;DHT22;15385;51.088;6.572;2022-09-27T18:40:40;12.20;99.90
28075;DHT22;15385;51.088;6.572;2022-09-27T18:43:11;12.30;99.90
28075;DHT22;15385;51.088;6.572;2022-09-27T18:45:42;12.30;99.90
28075;DHT22;15385;51.088;6.572;2022-09-27T18:48:12;12.40;99.90
28075;DHT22;15385;51.088;6.572;2022-09-27T18:50:42;12.40;99.90
28075;DHT22;15385;51.088;6.572;2022-09-27T18:53:14;12.20;99.90
28075;DHT22;15385;51.088;6.572;2022-09-27T18:55:44;12.20;99.90
28075;DHT22;15385;51.088;6.572;2022-09-27T18:58:15;12.10;99.90
28075;DHT22;15385;51.088;6.572;2022-09-27T19:00:45;12.10;99.90
28075;DHT22;15385;51.088;6.572;2022-09-27T19:03:16;12.20;99.90
28075;DHT22;15385;51.088;6.572;2022-09-27T19:05:52;12.20;99.90
28075;DHT22;15385;51.088;6.572;2022-09-27T19:08:22;12.10;99.90
28075;DHT22;15385;51.088;6.572;2022-09-27T19:10:53;12.10;99.90
28075;DHT22;15385;51.088;6.572;2022-09-27T19:13:23;12.00;99.90
28075;DHT22;15385;51.088;6.572;2022-09-27T19:15:54;12.10;99.90
28075;DHT22;15385;51.088;6.572;2022-09-27T19:18:25;12.20;99.90
28075;DHT22;15385;51.088;6.572;2022-09-27T19:21:15;12.30;99.90
28075;DHT22;15385;51.088;6.572;2022-09-27T19:23:46;12.30;99.90
28075;DHT22;15385;51.088;6.572;2022-09-27T19:26:19;12.20;99.90